Time;durP1;ratioP1;P1;durP2;ratioP2;P2;SDS_P1;SDS_P2;PMS_P1;PMS_P2;Temp;Humidity;BMP_temperature;BMP_pressure;BME280_temperature;BME280_humidity;BME280_pressure;Samples;Min_cycle;Max_cycle;Signal;HPM_P1;HPM_P2
2021/08/30 00:01:24;;;;;;;8.67;7.73;;;;;;;15.75;82.78;96594.34;5052234;28;20317;-67
2021/08/30 00:03:50;;;;;;;9.90;8.97;;;;;;;15.60;83.51;96586.63;5051295;28;20226;-67
2021/08/30 00:06:16;;;;;;;9.90;8.37;;;;;;;15.62;83.30;96584.59;5051836;28;20277;-67
2021/08/30 00:08:41;;;;;;;10.63;9.60;;;;;;;15.87;82.17;96581.41;5052235;28;20218;-66
2021/08/30 00:11:07;;;;;;;10.73;9.40;;;;;;;15.80;82.47;96581.38;5052208;28;20186;-67
2021/08/30 00:13:33;;;;;;;10.73;9.63;;;;;;;15.60;83.11;96586.63;5051353;28;20605;-67
2021/08/30 00:15:58;;;;;;;10.17;9.13;;;;;;;15.73;82.81;96585.84;5051514;28;20183;-67
2021/08/30 00:18:24;;;;;;;11.50;9.87;;;;;;;15.82;82.29;96584.63;5033673;28;20238;-67
2021/08/30 00:20:51;;;;;;;10.53;9.53;;;;;;;15.96;81.85;96574.13;5046545;28;20183;-67
2021/08/30 00:23:16;;;;;;;10.60;9.50;;;;;;;15.91;82.38;96582.66;5051804;28;20465;-66
2021/08/30 00:25:43;;;;;;;11.73;10.53;;;;;;;16.00;81.45;96572.72;5051025;28;20802;-66
2021/08/30 00:28:09;;;;;;;12.03;9.60;;;;;;;15.88;82.11;96585.69;5051795;28;20913;-66
2021/08/30 00:30:34;;;;;;;11.70;10.07;;;;;;;16.09;81.17;96574.13;5043916;28;20448;-66
2021/08/30 00:33:00;;;;;;;10.67;9.57;;;;;;;16.19;80.53;96573.69;5043967;28;20212;-65
2021/08/30 00:35:26;;;;;;;10.60;9.50;;;;;;;16.11;81.02;96572.09;5049049;28;20447;-66
2021/08/30 00:37:52;;;;;;;11.07;10.00;;;;;;;16.25;80.27;96574.75;5050588;28;20201;-68
2021/08/30 00:40:18;;;;;;;12.87;11.10;;;;;;;16.23;80.31;96574.13;5051576;28;20183;-66
2021/08/30 00:42:47;;;;;;;12.40;9.50;;;;;;;16.26;80.30;96568.41;5050227;28;20264;-66
2021/08/30 00:45:14;;;;;;;11.30;10.20;;;;;;;16.31;79.85;96570.47;5048297;28;20533;-67
2021/08/30 00:47:42;;;;;;;13.93;10.73;;;;;;;16.07;80.74;96576.16;5030507;28;20426;-67
2021/08/30 00:50:09;;;;;;;11.50;10.30;;;;;;;16.21;80.31;96565.59;5051403;28;20909;-67
2021/08/30 00:52:35;;;;;;;12.20;11.00;;;;;;;16.23;80.19;96563.56;5051196;28;20533;-67
2021/08/30 00:55:01;;;;;;;11.37;10.27;;;;;;;16.27;79.96;96570.03;5041870;28;20512;-67
2021/08/30 00:57:26;;;;;;;15.10;11.60;;;;;;;16.25;79.94;96567.63;5050319;28;20194;-67
2021/08/30 00:59:52;;;;;;;12.73;10.27;;;;;;;16.11;80.41;96565.97;5043178;28;20190;-66
2021/08/30 01:02:18;;;;;;;11.33;10.23;;;;;;;16.33;79.92;96561.31;5051060;28;20528;-66
2021/08/30 01:04:44;;;;;;;12.40;11.20;;;;;;;16.35;79.56;96561.09;5049483;28;20234;-66
2021/08/30 01:07:30;;;;;;;13.70;10.30;;;;;;;16.26;79.85;96563.13;5033447;28;20183;-68
2021/08/30 01:10:01;;;;;;;11.53;10.40;;;;;;;15.97;80.50;96563.34;5050245;28;20422;-67
2021/08/30 01:12:30;;;;;;;13.63;11.03;;;;;;;15.81;81.72;96567.16;5050912;28;20433;-67
2021/08/30 01:15:08;;;;;;;13.20;11.50;;;;;;;16.06;80.58;96556.03;5048863;28;20417;-68
2021/08/30 01:17:35;;;;;;;14.00;12.60;;;;;;;15.96;81.28;96552.97;5035849;28;20437;-69
2021/08/30 01:20:06;;;;;;;14.50;13.00;;;;;;;16.15;80.38;96561.94;5041881;28;20429;-67
2021/08/30 01:22:33;;;;;;;14.73;12.90;;;;;;;16.06;81.28;96556.03;5042106;28;20448;-67
2021/08/30 01:25:00;;;;;;;13.50;12.10;;;;;;;16.35;79.65;96554.00;5033048;28;20425;-68
2021/08/30 01:27:27;;;;;;;14.10;12.80;;;;;;;15.91;81.46;96553.59;5051095;28;20551;-67
2021/08/30 01:30:00;;;;;;;13.87;12.03;;;;;;;16.11;80.73;96550.97;5050415;28;20970;-68
2021/08/30 01:32:28;;;;;;;14.27;12.47;;;;;;;16.06;81.01;96545.47;5044488;28;20438;-68
2021/08/30 01:34:56;;;;;;;14.10;12.80;;;;;;;16.07;80.69;96547.09;5050485;28;20418;-68
2021/08/30 01:37:22;;;;;;;13.73;12.40;;;;;;;16.06;81.11;96547.28;5050913;28;20790;-67
2021/08/30 01:39:48;;;;;;;13.57;12.10;;;;;;;16.15;80.20;96550.53;5050604;28;20472;-68
2021/08/30 01:42:13;;;;;;;14.23;12.93;;;;;;;15.84;81.70;96549.28;5049521;28;20434;-67
2021/08/30 01:44:39;;;;;;;14.63;13.07;;;;;;;15.84;82.02;96544.78;5045742;28;20218;-67
2021/08/30 01:47:05;;;;;;;12.37;11.07;;;;;;;15.84;82.07;96538.72;5034285;28;20180;-68
2021/08/30 01:49:32;;;;;;;13.27;11.97;;;;;;;15.69;82.88;96545.00;5053130;28;20182;-67
2021/08/30 01:51:58;;;;;;;12.43;11.23;;;;;;;15.89;81.98;96544.22;5041868;28;20215;-67
2021/08/30 01:54:24;;;;;;;14.60;13.00;;;;;;;16.15;80.58;96540.78;5054926;28;20422;-68
2021/08/30 01:56:53;;;;;;;13.83;12.43;;;;;;;15.88;81.70;96540.78;5052318;28;20455;-68
2021/08/30 02:02:07;;;;;;;13.97;12.50;;;;;;;15.88;81.89;96545.25;5057602;28;20464;-67
2021/08/30 02:04:33;;;;;;;12.80;11.60;;;;;;;15.58;83.18;96545.59;5034900;28;20457;-67
2021/08/30 02:06:59;;;;;;;16.77;12.57;;;;;;;15.91;81.77;96542.19;5050275;28;20429;-67
2021/08/30 02:09:25;;;;;;;12.67;11.47;;;;;;;15.82;81.93;96542.38;5051276;28;20422;-67
2021/08/30 02:11:51;;;;;;;12.13;10.33;;;;;;;15.86;81.90;96537.50;5043578;28;20210;-68
2021/08/30 02:14:17;;;;;;;12.17;10.97;;;;;;;15.67;82.00;96536.44;5045638;28;20429;-67
2021/08/30 02:16:42;;;;;;;13.03;11.60;;;;;;;15.88;81.31;96534.69;5036303;28;20196;-67
2021/08/30 02:19:23;;;;;;;13.40;12.00;;;;;;;15.85;81.70;96541.16;5036750;28;20655;-67
2021/08/30 02:22:05;;;;;;;13.10;11.80;;;;;;;15.66;82.27;96537.47;5050121;28;20211;-67
2021/08/30 02:24:44;;;;;;;13.00;11.70;;;;;;;15.72;82.26;96544.59;5030881;28;20469;-66
2021/08/30 02:27:15;;;;;;;13.33;11.73;;;;;;;15.98;81.45;96545.66;5048263;28;20452;-68
2021/08/30 02:29:45;;;;;;;13.67;12.23;;;;;;;16.12;80.33;96546.47;5049357;28;20421;-67
2021/08/30 02:32:11;;;;;;;15.00;11.87;;;;;;;16.08;80.66;96543.44;5050014;28;20446;-66
2021/08/30 02:34:38;;;;;;;13.30;12.00;;;;;;;15.95;81.20;96543.41;5050402;28;20425;-67
2021/08/30 02:37:04;;;;;;;12.27;11.07;;;;;;;15.89;81.38;96537.13;5052461;28;20421;-65
2021/08/30 02:39:31;;;;;;;14.87;11.80;;;;;;;15.94;81.33;96536.50;5033543;28;20434;-68
2021/08/30 02:41:56;;;;;;;11.43;10.40;;;;;;;15.70;82.71;96541.34;5052965;28;20461;-68
2021/08/30 02:44:22;;;;;;;13.13;11.73;;;;;;;15.94;81.45;96536.50;5035809;28;20469;-67
2021/08/30 02:46:48;;;;;;;12.13;10.90;;;;;;;16.05;81.14;96538.53;5044177;28;20188;-67
2021/08/30 02:49:14;;;;;;;12.47;10.13;;;;;;;15.75;82.25;96533.59;5048450;28;20245;-67
2021/08/30 02:51:41;;;;;;;11.40;10.20;;;;;;;16.06;81.18;96529.59;5052646;28;20701;-67
2021/08/30 02:54:08;;;;;;;11.50;10.23;;;;;;;15.94;80.92;96524.09;5043531;28;20427;-66
2021/08/30 02:56:35;;;;;;;10.73;9.70;;;;;;;16.02;80.77;96531.00;5043397;28;20464;-68
2021/08/30 02:59:01;;;;;;;11.13;10.03;;;;;;;15.89;81.70;96523.91;5053486;28;20512;-68
2021/08/30 03:01:27;;;;;;;11.70;10.50;;;;;;;16.05;81.20;96529.81;5051753;28;20457;-67
2021/08/30 03:03:52;;;;;;;11.37;10.17;;;;;;;15.71;82.64;96519.19;5052884;28;20242;-68
2021/08/30 03:06:18;;;;;;;11.47;10.10;;;;;;;15.70;82.78;96522.84;5027020;28;20184;-68
2021/08/30 03:08:43;;;;;;;11.30;9.53;;;;;;;15.73;82.85;96517.16;5033266;28;20183;-68
2021/08/30 03:11:10;;;;;;;10.00;9.00;;;;;;;15.77;83.06;96517.56;5052714;28;20910;-67
2021/08/30 03:13:38;;;;;;;12.50;11.20;;;;;;;15.72;82.84;96525.28;5051337;28;20275;-67
2021/08/30 03:16:04;;;;;;;10.73;9.17;;;;;;;15.52;83.28;96515.50;5052066;28;20837;-67
2021/08/30 03:18:30;;;;;;;10.43;8.60;;;;;;;15.70;82.95;96512.28;5033246;28;20450;-66
2021/08/30 03:20:56;;;;;;;7.97;7.17;;;;;;;15.33;84.47;96515.25;5047198;28;20283;-68
2021/08/30 03:23:23;;;;;;;9.23;8.20;;;;;;;15.56;84.02;96508.81;5050847;28;20468;-67
2021/08/30 03:25:48;;;;;;;8.17;7.37;;;;;;;15.71;83.26;96513.91;5052058;28;20979;-69
2021/08/30 03:28:14;;;;;;;8.60;7.80;;;;;;;15.74;83.02;96512.69;5045025;28;20510;-67
2021/08/30 03:30:40;;;;;;;8.00;7.33;;;;;;;15.70;82.88;96512.28;5051621;28;20187;-67
2021/08/30 03:33:06;;;;;;;7.90;7.10;;;;;;;15.58;83.41;96509.41;5051118;28;20945;-69
2021/08/30 03:35:32;;;;;;;6.93;6.33;;;;;;;15.43;84.13;96514.88;5050821;28;20187;-68
2021/08/30 03:37:59;;;;;;;7.10;6.50;;;;;;;15.70;82.90;96507.00;5046980;28;20205;-68
2021/08/30 03:40:25;;;;;;;7.27;6.67;;;;;;;15.60;83.31;96509.22;5051196;28;20783;-68
2021/08/30 03:42:51;;;;;;;7.47;6.77;;;;;;;15.45;84.02;96518.13;5051161;28;20820;-69
2021/08/30 03:45:17;;;;;;;7.03;6.37;;;;;;;15.45;84.34;96515.50;5049725;28;20509;-68
2021/08/30 03:47:43;;;;;;;7.17;6.57;;;;;;;15.34;85.08;96514.25;5050249;28;20430;-69
2021/08/30 03:50:10;;;;;;;8.70;7.90;;;;;;;15.50;84.59;96507.78;5051015;28;20428;-67
2021/08/30 03:52:38;;;;;;;12.43;9.30;;;;;;;15.53;85.39;96517.13;5049882;28;20202;-66
2021/08/30 03:55:05;;;;;;;12.30;9.80;;;;;;;15.54;85.17;96502.09;5051982;28;20517;-67
2021/08/30 03:57:30;;;;;;;10.27;9.27;;;;;;;15.53;84.99;96509.22;5036380;28;20468;-67
2021/08/30 03:59:58;;;;;;;9.30;8.40;;;;;;;15.57;84.46;96507.78;5051288;28;20429;-67
2021/08/30 04:02:27;;;;;;;11.23;10.20;;;;;;;15.71;83.71;96516.56;5051528;28;20570;-67
2021/08/30 04:04:52;;;;;;;10.73;9.57;;;;;;;15.37;85.93;96515.69;5050088;28;20457;-66
2021/08/30 04:07:18;;;;;;;14.93;9.57;;;;;;;15.58;84.36;96503.31;5040654;28;20913;-66
2021/08/30 04:09:44;;;;;;;14.43;9.50;;;;;;;15.66;84.18;96513.69;5052161;28;20195;-66
2021/08/30 04:12:11;;;;;;;11.40;10.20;;;;;;;15.55;85.55;96506.38;5051652;28;20441;-66
2021/08/30 04:14:36;;;;;;;10.87;9.70;;;;;;;15.61;84.39;96508.22;5051298;28;20194;-67
2021/08/30 04:17:02;;;;;;;10.90;9.80;;;;;;;15.56;85.04;96515.91;5052096;28;20429;-66
2021/08/30 04:19:28;;;;;;;12.70;10.07;;;;;;;15.66;84.39;96516.31;5042624;28;20262;-68
2021/08/30 04:21:54;;;;;;;11.10;9.83;;;;;;;15.48;84.96;96515.09;5051521;28;20324;-68
2021/08/30 04:24:19;;;;;;;12.83;11.47;;;;;;;15.52;85.53;96515.50;5050490;28;20211;-66
2021/08/30 04:26:45;;;;;;;14.20;10.50;;;;;;;15.46;85.13;96521.56;5050201;28;20278;-66
2021/08/30 04:29:10;;;;;;;12.23;10.80;;;;;;;15.49;85.71;96516.72;5051851;28;20183;-67
2021/08/30 04:31:36;;;;;;;12.03;10.60;;;;;;;15.43;85.19;96508.78;5051839;28;20723;-68
2021/08/30 04:34:02;;;;;;;14.13;11.60;;;;;;;15.62;84.80;96510.66;5051286;28;20183;-67
2021/08/30 04:36:27;;;;;;;14.67;11.83;;;;;;;15.51;85.57;96514.69;5047968;28;20186;-67
2021/08/30 04:38:53;;;;;;;16.43;13.23;;;;;;;15.33;86.98;96517.09;5068144;28;20234;-68
2021/08/30 04:41:19;;;;;;;17.03;13.43;;;;;;;15.68;85.34;96521.44;5066756;28;20247;-67
2021/08/30 04:43:45;;;;;;;21.13;14.73;;;;;;;15.77;84.71;96512.28;5064329;28;20211;-67
2021/08/30 04:46:11;;;;;;;20.90;15.70;;;;;;;15.89;84.37;96518.63;5058887;28;20588;-66
2021/08/30 04:48:36;;;;;;;20.77;15.73;;;;;;;15.63;84.68;96519.38;5051629;28;20426;-67
2021/08/30 04:51:02;;;;;;;21.70;16.20;;;;;;;15.62;85.68;96536.25;5053311;28;20187;-66
2021/08/30 04:53:28;;;;;;;20.57;15.00;;;;;;;15.59;86.43;96515.53;5052186;28;20195;-67
2021/08/30 04:55:54;;;;;;;20.20;15.43;;;;;;;15.60;86.06;96523.22;5050747;28;20508;-67
2021/08/30 04:58:19;;;;;;;21.80;14.90;;;;;;;15.65;85.17;96525.25;5051729;28;20328;-68
2021/08/30 05:00:45;;;;;;;22.77;15.43;;;;;;;15.88;84.74;96524.91;5051946;28;20246;-66
2021/08/30 05:03:10;;;;;;;20.30;14.73;;;;;;;15.60;85.38;96520.59;5051278;28;20207;-67
2021/08/30 05:05:36;;;;;;;23.43;16.37;;;;;;;15.58;86.08;96532.38;5043617;28;20201;-68
2021/08/30 05:08:01;;;;;;;21.33;15.50;;;;;;;15.79;84.96;96529.56;5044439;28;20191;-67
2021/08/30 05:10:27;;;;;;;22.90;15.00;;;;;;;15.54;86.60;96526.69;5051577;28;20351;-68
2021/08/30 05:12:53;;;;;;;17.07;12.30;;;;;;;15.44;87.37;96529.72;5050641;28;20298;-67
2021/08/30 05:15:18;;;;;;;16.37;12.10;;;;;;;15.43;86.95;96528.06;5049919;28;20191;-67
2021/08/30 05:17:44;;;;;;;15.63;12.60;;;;;;;15.68;85.71;96532.78;5042857;28;20179;-68
2021/08/30 05:20:10;;;;;;;17.73;13.07;;;;;;;15.64;85.96;96528.91;5042591;28;20183;-67
2021/08/30 05:22:35;;;;;;;18.87;15.17;;;;;;;15.47;86.80;96542.50;5049331;28;20209;-67
2021/08/30 05:25:01;;;;;;;20.90;16.57;;;;;;;15.52;87.50;96540.06;5049413;28;20907;-67
2021/08/30 05:27:27;;;;;;;23.03;16.13;;;;;;;15.69;86.50;96537.06;5050841;28;20254;-67
2021/08/30 05:29:54;;;;;;;21.67;16.60;;;;;;;15.65;86.21;96531.38;5050084;28;20248;-68
2021/08/30 05:32:21;;;;;;;21.90;17.20;;;;;;;15.69;86.51;96525.69;5050591;28;20219;-68
2021/08/30 05:34:46;;;;;;;24.20;17.17;;;;;;;15.56;86.90;96537.03;5050232;28;20429;-66
2021/08/30 05:37:12;;;;;;;37.07;21.90;;;;;;;15.33;87.79;96538.22;5050659;28;20792;-67
2021/08/30 05:39:37;;;;;;;51.50;23.53;;;;;;;15.60;86.08;96535.63;5051130;28;20198;-68
2021/08/30 05:42:03;;;;;;;28.80;19.40;;;;;;;15.59;86.79;96532.16;5050721;28;20272;-66
2021/08/30 05:44:29;;;;;;;49.67;23.47;;;;;;;15.49;86.80;96543.13;5049001;28;20285;-67
2021/08/30 05:46:55;;;;;;;32.60;18.90;;;;;;;15.39;88.13;96542.69;5041253;28;20901;-69
2021/08/30 05:49:20;;;;;;;30.07;17.93;;;;;;;15.48;87.63;96545.97;5050263;28;20233;-66
2021/08/30 05:51:47;;;;;;;32.70;21.97;;;;;;;15.58;86.81;96548.22;5050495;28;20631;-67
2021/08/30 05:54:13;;;;;;;32.57;17.97;;;;;;;15.68;86.64;96532.78;5049909;28;20528;-68
2021/08/30 05:56:39;;;;;;;29.13;15.23;;;;;;;15.72;86.25;96536.66;5050610;28;20790;-67
2021/08/30 05:59:04;;;;;;;23.50;15.30;;;;;;;15.71;86.26;96550.06;5050147;28;20426;-68
2021/08/30 06:01:30;;;;;;;38.20;18.60;;;;;;;15.66;86.24;96538.28;5041912;28;20207;-67
2021/08/30 06:03:56;;;;;;;31.70;16.60;;;;;;;15.79;85.33;96549.88;5048485;28;20215;-68
2021/08/30 06:06:22;;;;;;;24.73;13.60;;;;;;;15.81;85.64;96545.22;5041398;28;20191;-66
2021/08/30 06:08:47;;;;;;;17.07;13.60;;;;;;;15.83;85.56;96551.09;5050422;28;20183;-67
2021/08/30 06:11:13;;;;;;;15.30;12.40;;;;;;;16.02;84.33;96560.06;5050121;28;20232;-67
2021/08/30 06:13:39;;;;;;;18.50;13.30;;;;;;;15.71;85.58;96555.34;5051145;28;20189;-68
2021/08/30 06:16:04;;;;;;;17.13;13.53;;;;;;;15.82;85.53;96554.75;5045729;28;20244;-69
2021/08/30 06:18:30;;;;;;;20.70;13.37;;;;;;;16.11;83.74;96553.59;5050810;28;20188;-67
2021/08/30 06:20:55;;;;;;;19.30;13.00;;;;;;;15.76;85.48;96563.50;5050134;28;20577;-67
2021/08/30 06:23:21;;;;;;;17.87;12.90;;;;;;;15.94;84.10;96555.00;5052913;28;20211;-67
2021/08/30 06:25:47;;;;;;;23.93;12.77;;;;;;;15.67;85.70;96552.28;5053302;28;20189;-68
2021/08/30 06:28:12;;;;;;;15.80;12.80;;;;;;;15.81;85.57;96553.16;5045336;28;20184;-68
2021/08/30 06:30:38;;;;;;;15.37;11.90;;;;;;;16.11;83.77;96548.31;5054228;28;20183;-67
2021/08/30 06:33:04;;;;;;;13.77;12.20;;;;;;;15.80;85.58;96551.50;5053723;28;20203;-69
2021/08/30 06:35:30;;;;;;;18.87;14.03;;;;;;;15.90;84.73;96551.97;5037068;28;20256;-67
2021/08/30 06:37:55;;;;;;;17.03;11.73;;;;;;;15.56;86.44;96564.28;5053862;28;20227;-67
2021/08/30 06:40:23;;;;;;;18.60;13.20;;;;;;;15.94;85.22;96549.72;5051043;28;20464;-68
2021/08/30 06:42:49;;;;;;;18.83;13.47;;;;;;;16.01;84.39;96539.94;5053003;28;20210;-66
2021/08/30 06:45:15;;;;;;;13.50;12.07;;;;;;;16.05;83.95;96546.47;5052619;28;20484;-70
2021/08/30 06:47:42;;;;;;;16.03;11.73;;;;;;;15.91;84.61;96565.97;5044833;28;20974;-66
2021/08/30 06:50:08;;;;;;;14.63;11.00;;;;;;;16.13;83.63;96572.69;5053441;28;20187;-66
2021/08/30 06:52:34;;;;;;;14.23;11.97;;;;;;;16.41;82.49;96566.38;5053484;28;20932;-68
2021/08/30 06:55:01;;;;;;;15.90;12.73;;;;;;;16.29;82.51;96568.00;5052772;28;20520;-68
2021/08/30 06:57:30;;;;;;;14.20;11.77;;;;;;;16.69;80.76;96562.69;5053205;28;20194;-67
2021/08/30 06:59:56;;;;;;;14.00;11.83;;;;;;;16.36;82.47;96568.84;5051541;28;20785;-68
2021/08/30 07:02:22;;;;;;;13.43;12.03;;;;;;;16.28;82.56;96571.66;5053013;28;20472;-67
2021/08/30 07:04:47;;;;;;;15.00;12.20;;;;;;;16.36;82.08;96568.00;5053113;28;20304;-68
2021/08/30 07:07:13;;;;;;;14.17;11.50;;;;;;;16.45;81.65;96568.63;5050973;28;20230;-68
2021/08/30 07:09:38;;;;;;;15.77;11.83;;;;;;;16.33;82.22;96566.59;5039934;28;20187;-68
2021/08/30 07:12:04;;;;;;;15.33;12.40;;;;;;;16.12;82.64;96568.44;5044969;28;20203;-66
2021/08/30 07:14:30;;;;;;;17.20;11.90;;;;;;;16.36;81.95;96555.63;5036323;28;20190;-66
2021/08/30 07:16:55;;;;;;;18.13;12.87;;;;;;;16.35;82.22;96564.56;5044465;28;20232;-67
2021/08/30 07:19:21;;;;;;;13.97;11.90;;;;;;;16.19;82.69;96571.06;5043199;28;20555;-68
2021/08/30 07:21:46;;;;;;;15.23;12.60;;;;;;;16.35;81.95;96569.03;5052876;28;20658;-67
2021/08/30 07:24:12;;;;;;;16.17;12.03;;;;;;;16.63;80.94;96565.34;5051257;28;20210;-67
2021/08/30 07:26:38;;;;;;;14.60;12.57;;;;;;;16.39;82.23;96568.41;5045650;28;20186;-67
2021/08/30 07:29:03;;;;;;;13.47;12.03;;;;;;;16.43;82.03;96574.94;5053074;28;20552;-67
2021/08/30 07:31:29;;;;;;;15.20;12.63;;;;;;;16.78;80.11;96568.56;5050786;28;20198;-66
2021/08/30 07:33:55;;;;;;;14.30;11.60;;;;;;;16.77;79.52;96566.09;5048721;28;20661;-68
2021/08/30 07:36:21;;;;;;;16.83;12.40;;;;;;;16.66;80.49;96572.88;5052672;28;20183;-68
2021/08/30 07:38:46;;;;;;;16.23;12.30;;;;;;;16.66;80.60;96572.88;5051093;28;20918;-67
2021/08/30 07:41:12;;;;;;;14.03;10.83;;;;;;;16.87;79.49;96579.75;5052208;28;20544;-68
2021/08/30 07:43:38;;;;;;;18.30;12.67;;;;;;;16.60;80.89;96577.16;5051684;28;20260;-69
2021/08/30 07:46:03;;;;;;;12.30;11.00;;;;;;;16.77;79.91;96581.97;5044355;28;20244;-67
2021/08/30 07:48:29;;;;;;;13.20;11.70;;;;;;;16.54;81.05;96577.97;5067836;28;20289;-67
2021/08/30 07:50:55;;;;;;;13.50;11.33;;;;;;;16.81;80.39;96580.56;5053073;28;20244;-70
2021/08/30 07:53:26;;;;;;;17.40;11.40;;;;;;;16.47;82.56;96585.91;5051802;28;20248;-69
2021/08/30 07:55:52;;;;;;;12.47;11.17;;;;;;;16.62;81.21;96593.63;5051776;28;20429;-67
2021/08/30 07:58:18;;;;;;;14.07;11.50;;;;;;;16.67;81.48;96588.53;5051987;28;20437;-67
2021/08/30 08:00:43;;;;;;;12.53;11.17;;;;;;;16.45;82.90;96581.84;5051616;28;20539;-68
2021/08/30 08:03:09;;;;;;;14.70;11.80;;;;;;;16.50;82.51;96595.28;5052036;28;20203;-68
2021/08/30 08:05:35;;;;;;;15.23;10.63;;;;;;;16.82;82.25;96600.72;5052193;28;20497;-68
2021/08/30 08:08:04;;;;;;;12.63;11.30;;;;;;;16.67;81.93;96600.94;5052292;28;20187;-67
2021/08/30 08:10:29;;;;;;;12.13;10.83;;;;;;;16.34;82.53;96604.41;5035865;28;20434;-66
2021/08/30 08:12:55;;;;;;;13.37;10.60;;;;;;;16.58;82.55;96597.69;5051415;28;20441;-66
2021/08/30 08:15:20;;;;;;;11.50;10.30;;;;;;;16.45;83.05;96603.00;5049998;28;20622;-67
2021/08/30 08:17:46;;;;;;;14.17;11.30;;;;;;;16.69;81.57;96612.16;5043394;28;20182;-68
2021/08/30 08:20:13;;;;;;;14.50;10.77;;;;;;;16.45;82.19;96605.66;5043945;28;20191;-67
2021/08/30 08:22:40;;;;;;;12.63;10.50;;;;;;;16.46;82.70;96610.72;5052359;28;20202;-68
2021/08/30 08:25:07;;;;;;;13.90;10.90;;;;;;;16.42;83.61;96610.31;5051252;28;20457;-67
2021/08/30 08:27:32;;;;;;;12.87;10.90;;;;;;;16.48;83.22;96619.25;5051816;28;20511;-67
2021/08/30 08:29:58;;;;;;;12.47;10.70;;;;;;;16.75;82.02;96608.66;5052222;28;20421;-68
2021/08/30 08:32:24;;;;;;;11.57;10.10;;;;;;;16.94;81.54;96608.84;5050736;28;20320;-68
2021/08/30 08:34:50;;;;;;;12.03;10.00;;;;;;;16.38;82.75;96614.38;5049795;28;20179;-68
2021/08/30 08:37:15;;;;;;;14.30;10.60;;;;;;;16.60;82.65;96608.91;5050992;28;20429;-69
2021/08/30 08:39:41;;;;;;;13.47;9.87;;;;;;;16.58;82.85;96618.84;5050708;28;20187;-68
2021/08/30 08:42:07;;;;;;;11.23;10.03;;;;;;;16.82;82.13;96624.53;5043412;28;20206;-68
2021/08/30 08:44:32;;;;;;;11.73;9.80;;;;;;;16.83;81.85;96620.88;5050359;28;20218;-67
2021/08/30 08:46:58;;;;;;;12.57;9.23;;;;;;;16.62;82.10;96620.09;5035531;28;20211;-69
2021/08/30 08:49:24;;;;;;;11.97;10.00;;;;;;;16.70;82.79;96633.09;5050739;28;20218;-69
2021/08/30 08:51:50;;;;;;;11.33;10.13;;;;;;;16.50;84.42;96637.59;5050970;28;20484;-68
2021/08/30 08:54:15;;;;;;;10.30;9.30;;;;;;;16.45;84.32;96638.19;5049965;28;20183;-67
2021/08/30 08:56:41;;;;;;;12.47;9.43;;;;;;;16.45;84.52;96640.81;5050666;28;20183;-67
2021/08/30 08:59:07;;;;;;;10.77;9.67;;;;;;;16.93;81.80;96647.72;5051417;28;20190;-67
2021/08/30 09:01:35;;;;;;;11.63;9.47;;;;;;;17.27;79.96;96632.56;5051623;28;20436;-68
2021/08/30 09:04:01;;;;;;;10.70;9.60;;;;;;;17.07;80.46;96642.41;5050787;28;20698;-68
2021/08/30 09:06:38;;;;;;;13.03;8.70;;;;;;;16.95;80.90;96642.25;5051598;28;20425;-68
2021/08/30 09:09:14;;;;;;;10.20;9.10;;;;;;;17.20;80.61;96637.09;5050651;28;20928;-67
2021/08/30 09:11:45;;;;;;;9.33;7.90;;;;;;;16.64;82.91;96638.38;5037695;28;20441;-67
2021/08/30 09:14:21;;;;;;;7.77;7.00;;;;;;;16.88;82.11;96639.59;5049879;28;20940;-68
2021/08/30 09:16:48;;;;;;;11.20;8.20;;;;;;;16.87;83.01;96645.91;5042941;28;20425;-67
2021/08/30 09:19:16;;;;;;;8.80;7.50;;;;;;;17.34;80.42;96648.44;5042948;28;20441;-68
2021/08/30 09:21:46;;;;;;;8.97;7.67;;;;;;;17.62;79.91;96652.63;5052618;28;20967;-68
2021/08/30 09:24:31;;;;;;;9.20;7.40;;;;;;;17.48;80.63;96647.38;5050626;28;20461;-66
2021/08/30 09:27:09;;;;;;;9.53;8.60;;;;;;;17.49;79.93;96646.34;5042782;28;20425;-67
2021/08/30 09:29:38;;;;;;;12.63;9.13;;;;;;;17.75;79.03;96641.97;5036374;28;20518;-68
2021/08/30 09:32:14;;;;;;;10.97;9.10;;;;;;;17.55;79.50;96650.00;5050969;28;20477;-68
2021/08/30 09:34:46;;;;;;;11.63;9.43;;;;;;;17.50;78.14;96652.47;5035942;28;20826;-66
2021/08/30 09:37:21;;;;;;;12.17;10.50;;;;;;;17.69;78.55;96649.94;5051464;28;20480;-66
2021/08/30 09:39:48;;;;;;;14.00;10.40;;;;;;;17.42;78.22;96644.75;5049551;28;20436;-67
2021/08/30 09:42:14;;;;;;;17.00;12.37;;;;;;;17.58;78.04;96643.50;5051057;28;20920;-67
2021/08/30 09:44:40;;;;;;;12.30;11.00;;;;;;;17.42;78.01;96642.94;5050226;28;20461;-67
2021/08/30 09:47:13;;;;;;;19.33;11.17;;;;;;;17.73;77.28;96641.34;5041611;28;20940;-68
2021/08/30 09:49:40;;;;;;;14.07;12.30;;;;;;;18.02;76.54;96641.84;5050942;28;20194;-65
2021/08/30 09:52:06;;;;;;;14.50;11.90;;;;;;;17.91;76.22;96640.66;5052179;28;20445;-67
2021/08/30 09:54:33;;;;;;;15.53;11.57;;;;;;;17.98;76.22;96643.28;5053069;28;20460;-67
2021/08/30 09:56:59;;;;;;;14.13;11.50;;;;;;;17.63;77.47;96641.84;5048004;28;20429;-67
2021/08/30 09:59:25;;;;;;;16.37;11.33;;;;;;;17.92;76.22;96634.31;5055714;28;20520;-67
2021/08/30 10:01:53;;;;;;;13.73;12.30;;;;;;;18.02;75.41;96633.09;5055141;28;20460;-67
2021/08/30 10:04:20;;;;;;;14.37;11.40;;;;;;;17.83;76.42;96635.59;5053485;28;20465;-67
2021/08/30 10:06:48;;;;;;;13.40;11.37;;;;;;;17.87;77.03;96633.34;5054500;28;20594;-66
2021/08/30 10:09:16;;;;;;;13.90;11.87;;;;;;;17.62;78.08;96636.72;5053805;28;20490;-68
2021/08/30 10:11:43;;;;;;;14.90;10.70;;;;;;;17.53;77.96;96644.09;5053969;28;20452;-67
2021/08/30 10:14:13;;;;;;;17.63;13.70;;;;;;;17.64;77.75;96656.69;5053230;28;20902;-68
2021/08/30 10:16:41;;;;;;;17.83;13.33;;;;;;;17.34;78.77;96638.69;5045925;28;20920;-68
2021/08/30 10:19:07;;;;;;;21.97;13.60;;;;;;;17.22;78.72;96648.28;5044854;28;20422;-67
2021/08/30 10:21:44;;;;;;;15.27;13.67;;;;;;;17.70;77.75;96644.44;5046229;28;20435;-68
2021/08/30 10:24:14;;;;;;;16.40;13.40;;;;;;;17.57;77.41;96631.25;5051709;28;20229;-66
2021/08/30 10:26:41;;;;;;;16.87;12.93;;;;;;;17.57;77.42;96642.66;5035410;28;20433;-68
2021/08/30 10:29:08;;;;;;;16.73;13.67;;;;;;;18.20;76.18;96641.13;5052346;28;20429;-68
2021/08/30 10:31:34;;;;;;;14.90;11.80;;;;;;;18.54;75.06;96640.88;5054042;28;20432;-67
2021/08/30 10:34:00;;;;;;;15.63;12.03;;;;;;;18.66;74.28;96641.78;5051940;28;20528;-69
2021/08/30 10:36:27;;;;;;;12.13;10.83;;;;;;;18.38;73.96;96647.53;5053858;28;20993;-66
2021/08/30 10:38:56;;;;;;;13.97;10.60;;;;;;;18.40;74.04;96642.78;5053871;28;20559;-66
2021/08/30 10:41:28;;;;;;;12.77;10.90;;;;;;;18.47;74.00;96645.41;5053860;28;20928;-67
2021/08/30 10:44:21;;;;;;;14.83;11.87;;;;;;;18.34;74.40;96647.13;5053039;28;20472;-67
2021/08/30 10:46:53;;;;;;;21.23;12.63;;;;;;;18.10;75.16;96646.09;5031069;28;21119;-68
2021/08/30 10:49:21;;;;;;;17.93;11.50;;;;;;;18.42;73.91;96654.00;5053135;28;20433;-67
2021/08/30 10:51:48;;;;;;;16.70;11.60;;;;;;;18.42;73.39;96651.34;5052451;28;20460;-68
2021/08/30 10:54:19;;;;;;;13.40;11.53;;;;;;;18.45;73.59;96650.94;5052902;28;20417;-66
2021/08/30 10:56:59;;;;;;;13.73;10.03;;;;;;;18.51;72.38;96642.13;5053997;28;20421;-68
2021/08/30 10:59:27;;;;;;;14.67;10.83;;;;;;;18.13;74.16;96650.97;5043995;28;20917;-66
2021/08/30 11:02:05;;;;;;;14.60;10.70;;;;;;;18.61;72.97;96651.44;5052652;28;20487;-66
2021/08/30 11:04:36;;;;;;;11.40;10.20;;;;;;;18.82;72.93;96650.22;5052139;28;20499;-68
2021/08/30 11:07:03;;;;;;;13.57;10.57;;;;;;;18.80;71.57;96665.56;5051631;28;20425;-68
2021/08/30 11:09:29;;;;;;;13.67;10.50;;;;;;;18.20;73.10;96657.03;5049959;28;20571;-68
2021/08/30 11:11:55;;;;;;;12.90;10.53;;;;;;;18.25;74.22;96662.50;5035143;28;21005;-67
2021/08/30 11:14:21;;;;;;;14.43;11.73;;;;;;;18.31;75.46;96660.84;5050154;28;20228;-68
2021/08/30 11:16:55;;;;;;;20.70;12.60;;;;;;;18.24;76.60;96668.84;5044816;28;20422;-68
2021/08/30 11:19:21;;;;;;;13.60;11.00;;;;;;;17.45;78.11;96676.13;5044609;28;20438;-68
2021/08/30 11:21:50;;;;;;;12.80;10.30;;;;;;;17.71;78.38;96674.41;5052375;28;20445;-68